sensor_id;sensor_type;location;lat;lon;timestamp;temperature;humidity
40932;DHT22;36257;46.052;12.540;2023-12-14T00:02:00;6.80;99.90
40932;DHT22;36257;46.052;12.540;2023-12-14T00:04:26;6.80;99.90
40932;DHT22;36257;46.052;12.540;2023-12-14T00:06:52;6.70;99.90
40932;DHT22;36257;46.052;12.540;2023-12-14T00:09:17;6.70;99.90
40932;DHT22;36257;46.052;12.540;2023-12-14T00:11:43;6.70;99.90
40932;DHT22;36257;46.052;12.540;2023-12-14T00:14:09;6.60;99.90
40932;DHT22;36257;46.052;12.540;2023-12-14T00:16:34;6.60;99.90
40932;DHT22;36257;46.052;12.540;2023-12-14T00:19:00;6.60;99.90
40932;DHT22;36257;46.052;12.540;2023-12-14T00:21:26;6.60;99.90
40932;DHT22;36257;46.052;12.540;2023-12-14T00:23:52;6.60;99.90
40932;DHT22;36257;46.052;12.540;2023-12-14T00:26:17;6.60;99.90
40932;DHT22;36257;46.052;12.540;2023-12-14T00:28:43;6.60;99.90
40932;DHT22;36257;46.052;12.540;2023-12-14T00:31:09;6.60;99.90
40932;DHT22;36257;46.052;12.540;2023-12-14T00:33:34;6.50;99.90
40932;DHT22;36257;46.052;12.540;2023-12-14T00:36:00;6.50;99.90
40932;DHT22;36257;46.052;12.540;2023-12-14T00:38:26;6.50;99.90
40932;DHT22;36257;46.052;12.540;2023-12-14T00:40:51;6.50;99.90
40932;DHT22;36257;46.052;12.540;2023-12-14T00:43:17;6.40;99.90
40932;DHT22;36257;46.052;12.540;2023-12-14T00:45:43;6.40;99.90
40932;DHT22;36257;46.052;12.540;2023-12-14T00:48:08;6.40;99.90
40932;DHT22;36257;46.052;12.540;2023-12-14T00:50:34;6.40;99.90
40932;DHT22;36257;46.052;12.540;2023-12-14T00:53:00;6.40;99.90
40932;DHT22;36257;46.052;12.540;2023-12-14T00:55:25;6.50;99.90
40932;DHT22;36257;46.052;12.540;2023-12-14T00:57:51;6.50;99.90
40932;DHT22;36257;46.052;12.540;2023-12-14T01:00:17;6.40;99.90
40932;DHT22;36257;46.052;12.540;2023-12-14T01:02:43;6.40;99.90
40932;DHT22;36257;46.052;12.540;2023-12-14T01:05:09;6.40;99.90
40932;DHT22;36257;46.052;12.540;2023-12-14T01:07:34;6.30;99.90
40932;DHT22;36257;46.052;12.540;2023-12-14T01:10:00;6.30;99.90
40932;DHT22;36257;46.052;12.540;2023-12-14T01:12:26;6.40;99.90
40932;DHT22;36257;46.052;12.540;2023-12-14T01:14:51;6.30;99.90
40932;DHT22;36257;46.052;12.540;2023-12-14T01:17:17;6.30;99.90
40932;DHT22;36257;46.052;12.540;2023-12-14T01:19:43;6.30;99.90
40932;DHT22;36257;46.052;12.540;2023-12-14T01:22:09;6.30;99.90
40932;DHT22;36257;46.052;12.540;2023-12-14T01:24:35;6.20;99.90
40932;DHT22;36257;46.052;12.540;2023-12-14T01:27:01;6.20;99.90
40932;DHT22;36257;46.052;12.540;2023-12-14T01:29:27;6.20;99.90
40932;DHT22;36257;46.052;12.540;2023-12-14T01:31:52;6.20;99.90
40932;DHT22;36257;46.052;12.540;2023-12-14T01:34:18;6.20;99.90
40932;DHT22;36257;46.052;12.540;2023-12-14T01:36:43;6.10;99.90
40932;DHT22;36257;46.052;12.540;2023-12-14T01:39:09;6.10;99.90
40932;DHT22;36257;46.052;12.540;2023-12-14T01:41:35;6.10;99.90
40932;DHT22;36257;46.052;12.540;2023-12-14T01:44:00;6.10;99.90
40932;DHT22;36257;46.052;12.540;2023-12-14T01:46:26;6.10;99.90
40932;DHT22;36257;46.052;12.540;2023-12-14T01:48:51;6.10;99.90
40932;DHT22;36257;46.052;12.540;2023-12-14T01:51:18;6.00;99.90
40932;DHT22;36257;46.052;12.540;2023-12-14T01:53:44;6.00;99.90
40932;DHT22;36257;46.052;12.540;2023-12-14T01:56:10;6.00;99.90
40932;DHT22;36257;46.052;12.540;2023-12-14T01:58:35;5.90;99.90
40932;DHT22;36257;46.052;12.540;2023-12-14T02:01:28;5.90;99.90
40932;DHT22;36257;46.052;12.540;2023-12-14T02:04:01;5.80;99.90
40932;DHT22;36257;46.052;12.540;2023-12-14T02:06:26;5.80;99.90
40932;DHT22;36257;46.052;12.540;2023-12-14T02:08:52;5.90;99.90
40932;DHT22;36257;46.052;12.540;2023-12-14T02:11:18;5.90;99.90
40932;DHT22;36257;46.052;12.540;2023-12-14T02:13:44;5.80;99.90
40932;DHT22;36257;46.052;12.540;2023-12-14T02:16:10;5.70;99.90
40932;DHT22;36257;46.052;12.540;2023-12-14T02:18:35;5.80;99.90
40932;DHT22;36257;46.052;12.540;2023-12-14T02:21:01;5.80;99.90
40932;DHT22;36257;46.052;12.540;2023-12-14T02:23:26;5.80;99.90
40932;DHT22;36257;46.052;12.540;2023-12-14T02:25:52;5.70;99.90
40932;DHT22;36257;46.052;12.540;2023-12-14T02:28:18;5.70;99.90
40932;DHT22;36257;46.052;12.540;2023-12-14T02:30:43;5.70;99.90
40932;DHT22;36257;46.052;12.540;2023-12-14T02:33:09;5.70;99.90
40932;DHT22;36257;46.052;12.540;2023-12-14T02:35:35;5.80;99.90
40932;DHT22;36257;46.052;12.540;2023-12-14T02:38:00;5.70;99.90
40932;DHT22;36257;46.052;12.540;2023-12-14T02:40:26;5.70;99.90
40932;DHT22;36257;46.052;12.540;2023-12-14T02:42:52;5.50;99.90
40932;DHT22;36257;46.052;12.540;2023-12-14T02:45:17;5.50;99.90
40932;DHT22;36257;46.052;12.540;2023-12-14T02:47:43;5.50;99.90
40932;DHT22;36257;46.052;12.540;2023-12-14T02:50:09;5.40;99.90
40932;DHT22;36257;46.052;12.540;2023-12-14T02:52:35;5.40;99.90
40932;DHT22;36257;46.052;12.540;2023-12-14T02:55:01;5.50;99.90
40932;DHT22;36257;46.052;12.540;2023-12-14T02:57:26;5.50;99.90
40932;DHT22;36257;46.052;12.540;2023-12-14T02:59:52;5.50;99.90
40932;DHT22;36257;46.052;12.540;2023-12-14T03:02:17;5.50;99.90
40932;DHT22;36257;46.052;12.540;2023-12-14T03:04:43;5.60;99.90
40932;DHT22;36257;46.052;12.540;2023-12-14T03:07:09;5.60;99.90
40932;DHT22;36257;46.052;12.540;2023-12-14T03:09:34;5.50;99.90
40932;DHT22;36257;46.052;12.540;2023-12-14T03:12:00;5.40;99.90
40932;DHT22;36257;46.052;12.540;2023-12-14T03:14:32;5.40;99.90
40932;DHT22;36257;46.052;12.540;2023-12-14T03:16:57;5.30;99.90
40932;DHT22;36257;46.052;12.540;2023-12-14T03:19:23;5.30;99.90
40932;DHT22;36257;46.052;12.540;2023-12-14T03:21:49;5.30;99.90
40932;DHT22;36257;46.052;12.540;2023-12-14T03:24:14;5.30;99.90
40932;DHT22;36257;46.052;12.540;2023-12-14T03:26:40;5.30;99.90
40932;DHT22;36257;46.052;12.540;2023-12-14T03:29:05;5.20;99.90
40932;DHT22;36257;46.052;12.540;2023-12-14T03:31:33;5.20;99.90
40932;DHT22;36257;46.052;12.540;2023-12-14T03:33:59;5.20;99.90
40932;DHT22;36257;46.052;12.540;2023-12-14T03:36:24;5.20;99.90
40932;DHT22;36257;46.052;12.540;2023-12-14T03:38:52;5.20;99.90
40932;DHT22;36257;46.052;12.540;2023-12-14T03:41:17;5.20;99.90
40932;DHT22;36257;46.052;12.540;2023-12-14T03:43:43;5.20;99.90
40932;DHT22;36257;46.052;12.540;2023-12-14T03:46:09;5.20;99.90
40932;DHT22;36257;46.052;12.540;2023-12-14T03:48:35;5.20;99.90
40932;DHT22;36257;46.052;12.540;2023-12-14T03:51:04;5.20;99.90
40932;DHT22;36257;46.052;12.540;2023-12-14T03:53:30;5.20;99.90
40932;DHT22;36257;46.052;12.540;2023-12-14T03:55:58;5.10;99.90
40932;DHT22;36257;46.052;12.540;2023-12-14T03:58:23;5.10;99.90
40932;DHT22;36257;46.052;12.540;2023-12-14T04:00:49;5.20;99.90
40932;DHT22;36257;46.052;12.540;2023-12-14T04:03:14;5.20;99.90
40932;DHT22;36257;46.052;12.540;2023-12-14T04:05:40;5.30;99.90
40932;DHT22;36257;46.052;12.540;2023-12-14T04:08:06;5.30;99.90
40932;DHT22;36257;46.052;12.540;2023-12-14T04:10:32;5.30;99.90
40932;DHT22;36257;46.052;12.540;2023-12-14T04:12:57;5.30;99.90
40932;DHT22;36257;46.052;12.540;2023-12-14T04:15:23;5.30;99.90
40932;DHT22;36257;46.052;12.540;2023-12-14T04:17:48;5.30;99.90
40932;DHT22;36257;46.052;12.540;2023-12-14T04:20:14;5.30;99.90
40932;DHT22;36257;46.052;12.540;2023-12-14T04:22:42;5.30;99.90
40932;DHT22;36257;46.052;12.540;2023-12-14T04:25:08;5.20;99.90
40932;DHT22;36257;46.052;12.540;2023-12-14T04:27:34;5.20;99.90
40932;DHT22;36257;46.052;12.540;2023-12-14T04:29:59;5.30;99.90
40932;DHT22;36257;46.052;12.540;2023-12-14T04:32:25;5.30;99.90
40932;DHT22;36257;46.052;12.540;2023-12-14T04:34:51;5.30;99.90
40932;DHT22;36257;46.052;12.540;2023-12-14T04:37:16;5.30;99.90
40932;DHT22;36257;46.052;12.540;2023-12-14T04:39:42;5.30;99.90
40932;DHT22;36257;46.052;12.540;2023-12-14T04:42:08;5.20;99.90
40932;DHT22;36257;46.052;12.540;2023-12-14T04:44:33;5.20;99.90
40932;DHT22;36257;46.052;12.540;2023-12-14T04:46:59;5.20;99.90
40932;DHT22;36257;46.052;12.540;2023-12-14T04:49:25;5.20;99.90
40932;DHT22;36257;46.052;12.540;2023-12-14T04:51:50;5.20;99.90
40932;DHT22;36257;46.052;12.540;2023-12-14T04:54:16;5.20;99.90
40932;DHT22;36257;46.052;12.540;2023-12-14T04:56:44;5.20;99.90
40932;DHT22;36257;46.052;12.540;2023-12-14T04:59:10;5.20;99.90
40932;DHT22;36257;46.052;12.540;2023-12-14T05:01:36;5.20;99.90
40932;DHT22;36257;46.052;12.540;2023-12-14T05:04:01;5.20;99.90
40932;DHT22;36257;46.052;12.540;2023-12-14T05:06:28;5.30;99.90
40932;DHT22;36257;46.052;12.540;2023-12-14T05:08:54;5.30;99.90
40932;DHT22;36257;46.052;12.540;2023-12-14T05:11:21;5.30;99.90
40932;DHT22;36257;46.052;12.540;2023-12-14T05:13:46;5.30;99.90
40932;DHT22;36257;46.052;12.540;2023-12-14T05:16:15;5.20;99.90
40932;DHT22;36257;46.052;12.540;2023-12-14T05:18:41;5.10;99.90
40932;DHT22;36257;46.052;12.540;2023-12-14T05:21:06;5.10;99.90
40932;DHT22;36257;46.052;12.540;2023-12-14T05:23:32;5.00;99.90
40932;DHT22;36257;46.052;12.540;2023-12-14T05:25:58;5.00;99.90
40932;DHT22;36257;46.052;12.540;2023-12-14T05:28:24;5.00;99.90
40932;DHT22;36257;46.052;12.540;2023-12-14T05:30:50;5.00;99.90
40932;DHT22;36257;46.052;12.540;2023-12-14T05:33:15;5.00;99.90
40932;DHT22;36257;46.052;12.540;2023-12-14T05:35:41;5.10;99.90
40932;DHT22;36257;46.052;12.540;2023-12-14T05:38:06;5.10;99.90
40932;DHT22;36257;46.052;12.540;2023-12-14T05:40:32;5.20;99.90
40932;DHT22;36257;46.052;12.540;2023-12-14T05:42:58;5.10;99.90
40932;DHT22;36257;46.052;12.540;2023-12-14T05:45:23;5.10;99.90
40932;DHT22;36257;46.052;12.540;2023-12-14T05:47:49;5.10;99.90
40932;DHT22;36257;46.052;12.540;2023-12-14T05:50:15;5.10;99.90
40932;DHT22;36257;46.052;12.540;2023-12-14T05:52:40;5.10;99.90
40932;DHT22;36257;46.052;12.540;2023-12-14T05:55:08;5.10;99.90
40932;DHT22;36257;46.052;12.540;2023-12-14T05:57:35;5.10;99.90
40932;DHT22;36257;46.052;12.540;2023-12-14T06:00:01;5.10;99.90
40932;DHT22;36257;46.052;12.540;2023-12-14T06:02:29;5.20;99.90
40932;DHT22;36257;46.052;12.540;2023-12-14T06:04:54;5.20;99.90
40932;DHT22;36257;46.052;12.540;2023-12-14T06:07:22;5.20;99.90
40932;DHT22;36257;46.052;12.540;2023-12-14T06:09:47;5.20;99.90
40932;DHT22;36257;46.052;12.540;2023-12-14T06:12:13;5.20;99.90
40932;DHT22;36257;46.052;12.540;2023-12-14T06:14:39;5.10;99.90
40932;DHT22;36257;46.052;12.540;2023-12-14T06:17:05;5.10;99.90
40932;DHT22;36257;46.052;12.540;2023-12-14T06:19:30;5.10;99.90
40932;DHT22;36257;46.052;12.540;2023-12-14T06:21:56;5.10;99.90
40932;DHT22;36257;46.052;12.540;2023-12-14T06:24:22;5.10;99.90
40932;DHT22;36257;46.052;12.540;2023-12-14T06:26:48;5.10;99.90
40932;DHT22;36257;46.052;12.540;2023-12-14T06:29:13;5.20;99.90
40932;DHT22;36257;46.052;12.540;2023-12-14T06:31:39;5.20;99.90
40932;DHT22;36257;46.052;12.540;2023-12-14T06:44:00;5.00;99.90
40932;DHT22;36257;46.052;12.540;2023-12-14T06:46:26;5.00;99.90
40932;DHT22;36257;46.052;12.540;2023-12-14T06:48:52;5.00;99.90
40932;DHT22;36257;46.052;12.540;2023-12-14T06:51:19;5.10;99.90
40932;DHT22;36257;46.052;12.540;2023-12-14T06:53:45;5.10;99.90
40932;DHT22;36257;46.052;12.540;2023-12-14T06:56:11;5.10;99.90
40932;DHT22;36257;46.052;12.540;2023-12-14T06:58:41;5.10;99.90
40932;DHT22;36257;46.052;12.540;2023-12-14T07:01:17;5.10;99.90
40932;DHT22;36257;46.052;12.540;2023-12-14T07:03:45;5.10;99.90
40932;DHT22;36257;46.052;12.540;2023-12-14T07:06:15;5.20;99.90
40932;DHT22;36257;46.052;12.540;2023-12-14T07:08:41;5.30;99.90
40932;DHT22;36257;46.052;12.540;2023-12-14T07:11:11;5.40;99.90
40932;DHT22;36257;46.052;12.540;2023-12-14T07:13:37;5.50;99.90
40932;DHT22;36257;46.052;12.540;2023-12-14T07:16:07;5.50;99.90
40932;DHT22;36257;46.052;12.540;2023-12-14T07:18:34;5.50;99.90
40932;DHT22;36257;46.052;12.540;2023-12-14T07:21:01;5.40;99.90
40932;DHT22;36257;46.052;12.540;2023-12-14T07:23:27;5.40;99.90
40932;DHT22;36257;46.052;12.540;2023-12-14T07:25:52;5.40;99.90
40932;DHT22;36257;46.052;12.540;2023-12-14T07:28:18;5.40;99.90
40932;DHT22;36257;46.052;12.540;2023-12-14T07:30:45;5.40;99.90
40932;DHT22;36257;46.052;12.540;2023-12-14T07:33:11;5.40;99.90
40932;DHT22;36257;46.052;12.540;2023-12-14T07:35:37;5.50;99.90
40932;DHT22;36257;46.052;12.540;2023-12-14T07:38:03;5.50;99.90
40932;DHT22;36257;46.052;12.540;2023-12-14T07:40:28;5.60;99.90
40932;DHT22;36257;46.052;12.540;2023-12-14T07:42:54;5.60;99.90
40932;DHT22;36257;46.052;12.540;2023-12-14T07:45:20;5.60;99.90
40932;DHT22;36257;46.052;12.540;2023-12-14T07:47:46;5.70;99.90
40932;DHT22;36257;46.052;12.540;2023-12-14T07:50:12;5.70;99.90
40932;DHT22;36257;46.052;12.540;2023-12-14T07:52:38;5.80;99.90
40932;DHT22;36257;46.052;12.540;2023-12-14T07:55:05;6.00;99.90
40932;DHT22;36257;46.052;12.540;2023-12-14T07:57:31;6.20;99.90
40932;DHT22;36257;46.052;12.540;2023-12-14T07:59:57;6.30;99.90
40932;DHT22;36257;46.052;12.540;2023-12-14T08:02:22;6.50;99.90
40932;DHT22;36257;46.052;12.540;2023-12-14T08:04:49;6.60;99.90
40932;DHT22;36257;46.052;12.540;2023-12-14T08:07:14;6.70;99.90
40932;DHT22;36257;46.052;12.540;2023-12-14T08:09:40;6.80;99.90
40932;DHT22;36257;46.052;12.540;2023-12-14T08:12:06;6.90;99.90
40932;DHT22;36257;46.052;12.540;2023-12-14T08:14:35;7.00;99.90
40932;DHT22;36257;46.052;12.540;2023-12-14T08:17:03;7.30;99.90
40932;DHT22;36257;46.052;12.540;2023-12-14T08:19:30;7.50;99.90
40932;DHT22;36257;46.052;12.540;2023-12-14T08:21:55;7.70;99.90
40932;DHT22;36257;46.052;12.540;2023-12-14T08:24:21;7.80;99.90
40932;DHT22;36257;46.052;12.540;2023-12-14T08:26:47;8.00;99.90
40932;DHT22;36257;46.052;12.540;2023-12-14T08:29:12;8.20;99.90
40932;DHT22;36257;46.052;12.540;2023-12-14T08:31:38;8.40;99.90
40932;DHT22;36257;46.052;12.540;2023-12-14T08:34:03;8.50;99.90
40932;DHT22;36257;46.052;12.540;2023-12-14T08:36:29;8.70;99.90
40932;DHT22;36257;46.052;12.540;2023-12-14T08:38:56;8.90;99.90
40932;DHT22;36257;46.052;12.540;2023-12-14T08:41:22;9.10;99.90
40932;DHT22;36257;46.052;12.540;2023-12-14T08:43:48;9.40;99.90
40932;DHT22;36257;46.052;12.540;2023-12-14T08:46:13;9.60;99.90
40932;DHT22;36257;46.052;12.540;2023-12-14T08:48:39;9.80;99.90
40932;DHT22;36257;46.052;12.540;2023-12-14T08:51:05;10.00;99.90
40932;DHT22;36257;46.052;12.540;2023-12-14T08:53:31;10.10;99.90
40932;DHT22;36257;46.052;12.540;2023-12-14T08:55:56;10.30;99.90
40932;DHT22;36257;46.052;12.540;2023-12-14T08:58:22;10.60;99.90
40932;DHT22;36257;46.052;12.540;2023-12-14T09:00:48;10.80;99.90
40932;DHT22;36257;46.052;12.540;2023-12-14T09:03:18;10.90;99.90
40932;DHT22;36257;46.052;12.540;2023-12-14T09:08:33;11.30;99.90
40932;DHT22;36257;46.052;12.540;2023-12-14T09:11:00;11.20;98.60
40932;DHT22;36257;46.052;12.540;2023-12-14T09:13:25;11.10;97.90
40932;DHT22;36257;46.052;12.540;2023-12-14T09:15:51;11.40;99.70
40932;DHT22;36257;46.052;12.540;2023-12-14T09:18:19;11.70;99.10
40932;DHT22;36257;46.052;12.540;2023-12-14T09:20:45;11.90;98.80
40932;DHT22;36257;46.052;12.540;2023-12-14T09:23:11;12.20;96.80
40932;DHT22;36257;46.052;12.540;2023-12-14T09:25:37;12.30;95.70
40932;DHT22;36257;46.052;12.540;2023-12-14T09:28:02;12.30;96.30
40932;DHT22;36257;46.052;12.540;2023-12-14T09:30:28;12.30;94.90
40932;DHT22;36257;46.052;12.540;2023-12-14T09:32:53;12.40;95.20
40932;DHT22;36257;46.052;12.540;2023-12-14T09:35:19;12.10;94.80
40932;DHT22;36257;46.052;12.540;2023-12-14T09:37:45;12.20;96.10
40932;DHT22;36257;46.052;12.540;2023-12-14T09:40:10;12.60;95.30
40932;DHT22;36257;46.052;12.540;2023-12-14T09:42:38;12.40;95.20
40932;DHT22;36257;46.052;12.540;2023-12-14T09:45:06;12.40;94.70
40932;DHT22;36257;46.052;12.540;2023-12-14T09:47:32;12.40;95.80
40932;DHT22;36257;46.052;12.540;2023-12-14T09:49:59;12.30;95.30
40932;DHT22;36257;46.052;12.540;2023-12-14T09:52:25;12.40;95.80
40932;DHT22;36257;46.052;12.540;2023-12-14T09:54:50;12.60;94.80
40932;DHT22;36257;46.052;12.540;2023-12-14T09:57:18;12.80;93.40
40932;DHT22;36257;46.052;12.540;2023-12-14T09:59:54;13.20;94.40
40932;DHT22;36257;46.052;12.540;2023-12-14T10:02:27;13.70;93.10
40932;DHT22;36257;46.052;12.540;2023-12-14T10:04:53;14.30;91.10
40932;DHT22;36257;46.052;12.540;2023-12-14T10:07:20;14.60;89.60
40932;DHT22;36257;46.052;12.540;2023-12-14T10:09:47;14.90;86.90
40932;DHT22;36257;46.052;12.540;2023-12-14T10:12:13;14.60;87.50
40932;DHT22;36257;46.052;12.540;2023-12-14T10:14:38;14.60;88.10
40932;DHT22;36257;46.052;12.540;2023-12-14T10:17:33;14.60;87.40
40932;DHT22;36257;46.052;12.540;2023-12-14T10:19:59;15.00;88.50
40932;DHT22;36257;46.052;12.540;2023-12-14T10:22:29;15.30;87.40
40932;DHT22;36257;46.052;12.540;2023-12-14T10:24:57;15.60;84.70
40932;DHT22;36257;46.052;12.540;2023-12-14T10:27:24;15.80;85.80
40932;DHT22;36257;46.052;12.540;2023-12-14T10:29:49;15.70;83.70
40932;DHT22;36257;46.052;12.540;2023-12-14T10:32:16;15.80;82.40
40932;DHT22;36257;46.052;12.540;2023-12-14T10:34:43;16.10;83.00
40932;DHT22;36257;46.052;12.540;2023-12-14T10:37:10;16.20;82.30
40932;DHT22;36257;46.052;12.540;2023-12-14T10:39:37;16.10;82.30
40932;DHT22;36257;46.052;12.540;2023-12-14T10:42:08;16.10;82.30
40932;DHT22;36257;46.052;12.540;2023-12-14T10:44:36;16.20;83.70
40932;DHT22;36257;46.052;12.540;2023-12-14T10:47:02;16.20;81.70
40932;DHT22;36257;46.052;12.540;2023-12-14T10:49:30;16.00;81.70
40932;DHT22;36257;46.052;12.540;2023-12-14T10:51:58;15.70;83.40
40932;DHT22;36257;46.052;12.540;2023-12-14T10:54:25;15.70;83.70
40932;DHT22;36257;46.052;12.540;2023-12-14T10:56:55;16.00;84.50
40932;DHT22;36257;46.052;12.540;2023-12-14T10:59:21;16.00;83.30
40932;DHT22;36257;46.052;12.540;2023-12-14T11:01:52;16.10;85.00
40932;DHT22;36257;46.052;12.540;2023-12-14T11:04:21;16.10;84.20
40932;DHT22;36257;46.052;12.540;2023-12-14T11:06:47;15.80;84.60
40932;DHT22;36257;46.052;12.540;2023-12-14T11:09:17;15.70;84.30
40932;DHT22;36257;46.052;12.540;2023-12-14T11:14:17;15.40;86.60
40932;DHT22;36257;46.052;12.540;2023-12-14T11:16:44;15.20;85.90
40932;DHT22;36257;46.052;12.540;2023-12-14T11:24:22;15.70;86.10
40932;DHT22;36257;46.052;12.540;2023-12-14T11:26:51;16.00;86.10
40932;DHT22;36257;46.052;12.540;2023-12-14T11:29:18;16.40;84.90
40932;DHT22;36257;46.052;12.540;2023-12-14T11:31:44;16.60;82.90
40932;DHT22;36257;46.052;12.540;2023-12-14T11:34:11;16.90;83.50
40932;DHT22;36257;46.052;12.540;2023-12-14T11:36:37;17.20;83.20
40932;DHT22;36257;46.052;12.540;2023-12-14T11:39:05;17.60;83.20
40932;DHT22;36257;46.052;12.540;2023-12-14T11:41:31;17.70;81.40
40932;DHT22;36257;46.052;12.540;2023-12-14T11:43:59;17.20;82.10
40932;DHT22;36257;46.052;12.540;2023-12-14T11:46:25;17.00;81.40
40932;DHT22;36257;46.052;12.540;2023-12-14T11:48:50;16.70;83.80
40932;DHT22;36257;46.052;12.540;2023-12-14T11:51:17;16.50;84.70
40932;DHT22;36257;46.052;12.540;2023-12-14T11:53:46;16.30;84.80
40932;DHT22;36257;46.052;12.540;2023-12-14T11:56:14;16.40;84.90
40932;DHT22;36257;46.052;12.540;2023-12-14T11:58:43;16.60;84.10
40932;DHT22;36257;46.052;12.540;2023-12-14T12:01:14;16.40;84.10
40932;DHT22;36257;46.052;12.540;2023-12-14T12:03:40;16.40;84.80
40932;DHT22;36257;46.052;12.540;2023-12-14T12:06:06;16.40;83.60
40932;DHT22;36257;46.052;12.540;2023-12-14T12:08:40;16.20;84.40
40932;DHT22;36257;46.052;12.540;2023-12-14T12:11:07;15.90;85.10
40932;DHT22;36257;46.052;12.540;2023-12-14T12:13:34;15.80;85.10
40932;DHT22;36257;46.052;12.540;2023-12-14T12:16:00;15.60;86.60
40932;DHT22;36257;46.052;12.540;2023-12-14T12:18:25;15.70;85.20
40932;DHT22;36257;46.052;12.540;2023-12-14T12:20:52;15.80;86.40
40932;DHT22;36257;46.052;12.540;2023-12-14T12:23:18;16.10;84.90
40932;DHT22;36257;46.052;12.540;2023-12-14T12:25:44;16.00;84.10
40932;DHT22;36257;46.052;12.540;2023-12-14T12:28:10;16.10;84.00
40932;DHT22;36257;46.052;12.540;2023-12-14T12:30:35;16.00;83.50
40932;DHT22;36257;46.052;12.540;2023-12-14T12:33:01;15.70;84.30
40932;DHT22;36257;46.052;12.540;2023-12-14T12:35:27;15.60;85.30
40932;DHT22;36257;46.052;12.540;2023-12-14T12:37:55;15.90;86.80
40932;DHT22;36257;46.052;12.540;2023-12-14T12:40:21;16.30;85.10
40932;DHT22;36257;46.052;12.540;2023-12-14T12:42:48;16.20;84.30
40932;DHT22;36257;46.052;12.540;2023-12-14T12:45:15;16.20;85.80
40932;DHT22;36257;46.052;12.540;2023-12-14T12:47:44;16.40;84.20
40932;DHT22;36257;46.052;12.540;2023-12-14T12:50:11;16.20;84.50
40932;DHT22;36257;46.052;12.540;2023-12-14T12:52:36;16.00;86.10
40932;DHT22;36257;46.052;12.540;2023-12-14T12:55:05;16.00;86.60
40932;DHT22;36257;46.052;12.540;2023-12-14T12:57:30;16.40;85.40
40932;DHT22;36257;46.052;12.540;2023-12-14T12:59:56;16.50;83.10
40932;DHT22;36257;46.052;12.540;2023-12-14T13:02:23;16.20;85.10
40932;DHT22;36257;46.052;12.540;2023-12-14T13:04:48;16.00;85.90
40932;DHT22;36257;46.052;12.540;2023-12-14T13:07:15;15.90;84.80
40932;DHT22;36257;46.052;12.540;2023-12-14T13:09:41;15.80;85.80
40932;DHT22;36257;46.052;12.540;2023-12-14T13:12:07;15.90;86.10
40932;DHT22;36257;46.052;12.540;2023-12-14T13:14:33;15.70;86.50
40932;DHT22;36257;46.052;12.540;2023-12-14T13:16:59;15.80;86.90
40932;DHT22;36257;46.052;12.540;2023-12-14T13:19:24;16.00;85.70
40932;DHT22;36257;46.052;12.540;2023-12-14T13:21:51;16.10;85.60
40932;DHT22;36257;46.052;12.540;2023-12-14T13:24:17;16.20;84.80
40932;DHT22;36257;46.052;12.540;2023-12-14T13:26:43;16.30;85.70
40932;DHT22;36257;46.052;12.540;2023-12-14T13:29:08;16.60;84.00
40932;DHT22;36257;46.052;12.540;2023-12-14T13:31:34;16.50;83.40
40932;DHT22;36257;46.052;12.540;2023-12-14T13:33:59;16.10;84.00
40932;DHT22;36257;46.052;12.540;2023-12-14T13:36:25;16.10;85.20
40932;DHT22;36257;46.052;12.540;2023-12-14T13:38:51;16.30;84.40
40932;DHT22;36257;46.052;12.540;2023-12-14T13:41:16;16.50;84.30
40932;DHT22;36257;46.052;12.540;2023-12-14T13:43:42;16.90;83.60
40932;DHT22;36257;46.052;12.540;2023-12-14T13:46:09;17.20;82.50
40932;DHT22;36257;46.052;12.540;2023-12-14T13:48:34;17.30;81.80
40932;DHT22;36257;46.052;12.540;2023-12-14T13:51:00;17.30;81.80
40932;DHT22;36257;46.052;12.540;2023-12-14T13:53:26;17.10;81.90
40932;DHT22;36257;46.052;12.540;2023-12-14T13:55:51;16.80;82.70
40932;DHT22;36257;46.052;12.540;2023-12-14T13:58:17;16.50;83.90
40932;DHT22;36257;46.052;12.540;2023-12-14T14:00:44;16.40;84.70
40932;DHT22;36257;46.052;12.540;2023-12-14T14:03:09;16.30;85.60
40932;DHT22;36257;46.052;12.540;2023-12-14T14:05:35;16.30;85.70
40932;DHT22;36257;46.052;12.540;2023-12-14T14:08:01;16.40;85.40
40932;DHT22;36257;46.052;12.540;2023-12-14T14:10:27;16.40;84.60
40932;DHT22;36257;46.052;12.540;2023-12-14T14:12:53;16.40;85.00
40932;DHT22;36257;46.052;12.540;2023-12-14T14:15:19;16.20;85.10
40932;DHT22;36257;46.052;12.540;2023-12-14T14:17:46;15.60;86.20
40932;DHT22;36257;46.052;12.540;2023-12-14T14:20:13;15.10;87.80
40932;DHT22;36257;46.052;12.540;2023-12-14T14:22:39;15.00;88.30
40932;DHT22;36257;46.052;12.540;2023-12-14T14:25:06;15.00;88.50
40932;DHT22;36257;46.052;12.540;2023-12-14T14:27:32;15.10;88.70
40932;DHT22;36257;46.052;12.540;2023-12-14T14:29:58;15.10;88.60
40932;DHT22;36257;46.052;12.540;2023-12-14T14:32:24;15.20;88.90
40932;DHT22;36257;46.052;12.540;2023-12-14T14:34:50;15.30;89.30
40932;DHT22;36257;46.052;12.540;2023-12-14T14:37:16;15.20;89.30
40932;DHT22;36257;46.052;12.540;2023-12-14T14:39:42;15.20;89.50
40932;DHT22;36257;46.052;12.540;2023-12-14T14:42:09;15.00;89.50
40932;DHT22;36257;46.052;12.540;2023-12-14T14:44:35;14.90;90.30
40932;DHT22;36257;46.052;12.540;2023-12-14T14:47:01;14.70;90.40
40932;DHT22;36257;46.052;12.540;2023-12-14T14:49:27;14.40;90.50
40932;DHT22;36257;46.052;12.540;2023-12-14T14:51:53;14.00;90.90
40932;DHT22;36257;46.052;12.540;2023-12-14T14:54:19;13.60;91.40
40932;DHT22;36257;46.052;12.540;2023-12-14T14:56:45;13.30;91.80
40932;DHT22;36257;46.052;12.540;2023-12-14T14:59:11;12.90;92.80
40932;DHT22;36257;46.052;12.540;2023-12-14T15:01:38;12.60;93.90
40932;DHT22;36257;46.052;12.540;2023-12-14T15:04:03;12.20;94.80
40932;DHT22;36257;46.052;12.540;2023-12-14T15:06:29;11.90;95.60
40932;DHT22;36257;46.052;12.540;2023-12-14T15:08:55;11.70;96.20
40932;DHT22;36257;46.052;12.540;2023-12-14T15:11:21;11.50;96.90
40932;DHT22;36257;46.052;12.540;2023-12-14T15:13:46;11.20;97.60
40932;DHT22;36257;46.052;12.540;2023-12-14T15:16:12;10.90;98.20
40932;DHT22;36257;46.052;12.540;2023-12-14T15:18:38;10.70;98.70
40932;DHT22;36257;46.052;12.540;2023-12-14T15:21:10;10.60;99.30
40932;DHT22;36257;46.052;12.540;2023-12-14T15:23:37;10.40;99.60
40932;DHT22;36257;46.052;12.540;2023-12-14T15:26:03;10.10;99.90
40932;DHT22;36257;46.052;12.540;2023-12-14T15:28:29;10.00;99.90
40932;DHT22;36257;46.052;12.540;2023-12-14T15:30:54;9.90;99.90
40932;DHT22;36257;46.052;12.540;2023-12-14T15:33:20;9.80;99.90
40932;DHT22;36257;46.052;12.540;2023-12-14T15:35:46;9.70;99.90
40932;DHT22;36257;46.052;12.540;2023-12-14T15:38:12;9.60;99.90
40932;DHT22;36257;46.052;12.540;2023-12-14T15:40:37;9.50;99.90